Aérodrome :
LOGIN :

S'inscrire | Disclaimer

   EN    FR    IT 

 










Légende :    VFR   VFR Marginal   IFR   IFR Intensif   IFR Très Intensif
Visi : 
Plafond : 
>= 8 km
>= 3000ft
5 à 8 km
1000 à 3000 ft
1500m à 5 km
500 à 1000 ft
800 à 1500m
200 à 500 ft
< 800m
< 200 ft
Symboles :   Orages  Brouillard  Fortes neiges  Fortes précipitations  Vent > 20 kt
SIGMETs :   Divers  Orages  Givrage  Turbulence  Onde Orograph.  Cendres Volcan.






- Altitude de l'aérodrome : 12 ft
- Code IATA : BCN


LEBL - Barcelone

DERNIER METAR :
  • 200000Z 24009KT CAVOK 13/10 Q1017 NOSIG

METARs EXPIRÉS :
  • 192330Z 25010KT CAVOK 14/09 Q1018 NOSIG
  • 192300Z 26011KT CAVOK 14/09 Q1018 NOSIG
  • 192230Z 25010KT CAVOK 13/09 Q1018 NOSIG
  • 192200Z 25010KT 9999 FEW060 14/09 Q1018 NOSIG
  • 192130Z 25012KT CAVOK 14/09 Q1018 NOSIG
  • 192100Z 25011KT CAVOK 14/09 Q1018 NOSIG
  • 192030Z 25012KT CAVOK 14/09 Q1018 NOSIG
  • 192000Z 25013KT 9999 FEW060 14/09 Q1018 NOSIG
  • 191930Z 24011KT CAVOK 14/09 Q1018 NOSIG

TAF TAF LEBL
Valide du 20 à 00h jusqu'au 21 à 00h UTC


192300Z 2000/2024 23008KT CAVOK TX19/2013Z TN10/2006Z
BECMG 2000/2002 33007KT
BECMG 2007/2009 12006KT
BECMG 2009/2011 18008KT
BECMG 2018/2020 24005KT



MET'MAP, la Météo Aéronautique d'un coup d'oeil ! - Copyright ORBIFLY Décembre 2007 - Disclaimer

ORBIFLY MET'MAP TEAM :

Programmation & Développement : Alexandra Zaïnal
Sur une idée originale de : Baudouin d'Aumeries
Soutien technique & logistique : Manuel Goepfert
Assistance : Marc-Olivier Méhu




SOURCES & CREDITS :

   NOAA